Terminal Aerodrome Forecast
Issued by NWS

Home | Current Version | Previous Version | Graphics & Text | Print | Product List | Glossary On
Versions: 1 2 3 4 5 6 7 8 9 10 11 12 13 14 15 16
000
FTUS43 KICT 300800 AAA
TAFSLN
TAF AMD
KSLN 300855Z 3009/3106 04009KT P6SM VCSH BKN045
      TEMPO 3010/3014 -SHRA
     FM301400 09007KT P6SM SCT040 OVC070
     FM302200 05005KT P6SM BKN150=

USA.gov is the U.S. government's official web portal to all federal, state and local government web resources and services.